This is the latest recevied weather packets stored in our database for station/object OH6DL-15. If no packets are shown the sender has not sent any weather packets the latest 10 day(s).
| Time | Temp. | Humidity | Pressure | Rain* | Wind** | Luminosity | Snow |
|---|---|---|---|---|---|---|---|
| 1777379223 | 3.33° C | 53% | 1019.7 hPa | 0 mm | - | - | - |
| 1777377372 | 4.44° C | 50% | 1019.3 hPa | 0 mm | - | - | - |
| 1777375083 | 4.44° C | 51% | 1019.2 hPa | 0 mm | - | - | - |
| 1777374003 | 4.44° C | 50% | 1019.3 hPa | 0 mm | - | - | - |
| 1777366804 | 2.78° C | 55% | 1018.3 hPa | 0 mm | - | - | - |
| 1777362437 | 3.33° C | 53% | 1018.3 hPa | 0 mm | - | - | - |
| 1777361224 | 2.22° C | 58% | 1018 hPa | 0 mm | - | - | - |
| 1777356004 | 1.11° C | 66% | 1017.8 hPa | 0 mm | - | - | - |
| 1777354023 | 1.11° C | 69% | 1017.9 hPa | 0 mm | - | - | - |
| 1777350423 | -0.56° C | 76% | 1018 hPa | 0 mm | - | - | - |
| 1777349884 | -0.56° C | 77% | 1017.9 hPa | 0 mm | - | - | - |
| 1777349343 | -0.56° C | 77% | 1017.7 hPa | 0 mm | - | - | - |
| 1777348577 | -0.56° C | 78% | 1017.8 hPa | 0 mm | - | - | - |
| 1777347903 | -0.56° C | 79% | 1017.7 hPa | 0 mm | - | - | - |
| 1777346824 | -1.11° C | 80% | 1017.7 hPa | 0 mm | - | - | - |
| 1777346284 | -1.11° C | 81% | 1017.7 hPa | 0 mm | - | - | - |
| 1777344843 | -1.11° C | 81% | 1017.5 hPa | 0 mm | - | - | - |
| 1777343223 | -1.11° C | 81% | 1017.4 hPa | 0 mm | - | - | - |
| 1777342683 | -1.11° C | 81% | 1017.4 hPa | 0 mm | - | - | - |
| 1777338544 | -0.56° C | 77% | 1017.2 hPa | 0 mm | - | - | - |
| 1777337643 | -0.56° C | 77% | 1017.2 hPa | 0 mm | - | - | - |
| 1777337104 | -0.56° C | 76% | 1017.2 hPa | 0 mm | - | - | - |
| 1777336023 | -0.56° C | 75% | 1016.9 hPa | 0 mm | - | - | - |
| 1777334533 | 0° C | 73% | 1016.8 hPa | 0 mm | - | - | - |
| 1777334044 | 0° C | 73% | 1017 hPa | 0 mm | - | - | - |
* Rain latest hour (hover to see other rain measurements)
** Current wind speed in m/s (hover to see current wind gust speed)